Waimanalo, HI (96795)

5:26 AM HST on August 30, 2016 (GMT -1000)
Akialoa Place | | Change Station
Active Advisory: High Surf Advisory

Elev 72 ft 21.37 °N, 157.74 °W | Updated 3 minutes ago

Partly Cloudy
Partly Cloudy
75.7 °F
Feels Like 77 °F
N
2.5
Wind Variable Wind from NW
Gusts 5.0 mph

Today
High -- | Low -- °F
--% Chance of Precip.
Yesterday
High -- | Low -- °F
Precip. -- in
Pressure 29.95 in
Visibility 10.0 miles
Clouds Few 6000 ft
Heat Index 77 °F
Dew Point 68 °F
Humidity 78%
Rainfall 0.00 in
Snow Depth Not available.
6:13 AM 6:48 PM
Waning Crescent, 3% visible
METAR PHNG 301457Z 05010KT 10SM FEW060 26/21 A2997 RMK AO2 SLP142 T02560206 56008 $
Pressure 29.95 in
Visibility 10.0 miles
Clouds Few 6000 ft
Heat Index 77 °F
Dew Point 68 °F
Humidity 78%
Rainfall 0.00 in
Snow Depth Not available.
6:13 AM 6:48 PM
Waning Crescent, 3% visible
METAR PHNG 301457Z 05010KT 10SM FEW060 26/21 A2997 RMK AO2 SLP142 T02560206 56008 $
Hurricane Madeline rapidly intensified from Sunday into Monday morning, and it may take a close swipe at parts of the Hawaiian Islands in the days ahead. Madeline's estimated peak surface winds increased from a 50 mph tropical storm Sunday morning, to a 125 mph Category 3 hurricane by Monday evening. A hurricane watch has been issued for Hawaii's Big Island. This means hurricane-force winds are possible within the warning area in the next 48 hours or less.

10-Day Weather Forecast

Almanac

Astronomy

Aug. 30, 2016 Rise Set
Actual Time
Civil Twilight
Nautical Twilight
Astronomical Twilight
Moon
Length of Visible Light
Length of Day
Tomorrow will be .
, % of the Moon is Illuminated

Today's Extremes

State Highs State Lows

Community

WunderPhotos

Upload Photos

1,935,855 photos uploaded!

WunderBlog® & News

Nearby

Air Quality

  Air Quality AQ Index Pollutant
Not available.

Snow Depth

Station Depth Elevation

Earthquake Activity

City Distance Mag. Time & Date
Minimum magnitude displayed is 2.5.

Coastal Water Temperatures

Place Temperature

Stations

Nearby Weather Stations

Station Location Temp. Windchill Dew Point Humidity Wind Precip. Elev Updated Type
                   

Watches & Warnings

High Surf Advisory
Issued: 4:41 AM HST Aug. 30, 2016 – National Weather Service

... High surf advisory remains in effect from 6 PM this evening to
6 am HST Thursday...

* surf... building to 5 to 9 feet tonight.

* Timing... tonight through Wednesday night.

* Impacts... moderate... expect strong breaking waves... shore
break... and strong longshore and rip currents making swimming
difficult and dangerous.

Precautionary/preparedness actions...

Beachgoers... swimmers... and surfers should heed all advice given
by ocean safety officials and exercise caution.